Time;durP1;ratioP1;P1;durP2;ratioP2;P2;SDS_P1;SDS_P2;PMS_P1;PMS_P2;Temp;Humidity;BMP_temperature;BMP_pressure;BME280_temperature;BME280_humidity;BME280_pressure;Samples;Min_cycle;Max_cycle;Signal;HPM_P1;HPM_P2
2023/02/03 00:01:53;;;;;;;14.50;7.60;;;6.10;99.90;;;;;;4971049;28;20289;-73
2023/02/03 00:04:19;;;;;;;15.10;8.20;;;6.10;99.90;;;;;;4987669;28;20288;-72
2023/02/03 00:06:47;;;;;;;17.33;9.10;;;6.20;99.90;;;;;;4971412;28;20201;-73
2023/02/03 00:09:15;;;;;;;17.33;9.13;;;6.20;99.90;;;;;;4972089;28;20264;-73
2023/02/03 00:11:43;;;;;;;18.47;10.03;;;6.30;99.90;;;;;;4971523;28;20282;-73
2023/02/03 00:14:10;;;;;;;19.07;11.13;;;6.40;99.90;;;;;;4971518;28;20236;-73
2023/02/03 00:16:37;;;;;;;19.60;11.37;;;6.40;99.90;;;;;;4970860;28;20229;-72
2023/02/03 00:19:04;;;;;;;21.67;11.57;;;6.50;99.90;;;;;;4970375;28;20768;-68
2023/02/03 00:21:31;;;;;;;24.43;11.93;;;6.60;99.90;;;;;;4970883;28;20197;-69
2023/02/03 00:23:58;;;;;;;20.83;11.83;;;6.60;99.90;;;;;;4971199;28;20668;-70
2023/02/03 00:26:27;;;;;;;24.07;13.90;;;6.70;99.90;;;;;;4971560;28;20225;-70
2023/02/03 00:28:55;;;;;;;23.17;13.63;;;6.80;99.90;;;;;;4972436;28;20280;-70
2023/02/03 00:31:24;;;;;;;26.97;14.90;;;6.80;99.90;;;;;;4971782;28;20292;-71
2023/02/03 00:33:54;;;;;;;27.03;15.13;;;6.90;99.90;;;;;;4971802;28;20605;-70
2023/02/03 00:36:21;;;;;;;25.87;14.60;;;6.90;99.90;;;;;;4972006;28;20213;-70
2023/02/03 00:38:48;;;;;;;24.70;14.80;;;6.80;99.90;;;;;;4973697;28;20233;-70
2023/02/03 00:41:15;;;;;;;23.77;14.00;;;6.80;99.90;;;;;;4975293;28;20212;-70
2023/02/03 00:43:42;;;;;;;24.23;14.53;;;6.90;99.90;;;;;;4975052;28;20296;-70
2023/02/03 00:46:11;;;;;;;23.70;13.67;;;7.00;99.90;;;;;;4975658;28;20202;-70
2023/02/03 00:48:38;;;;;;;30.40;16.83;;;7.00;99.90;;;;;;4975919;28;20237;-71
2023/02/03 00:51:06;;;;;;;23.80;15.07;;;7.00;99.90;;;;;;4974625;28;20292;-70
2023/02/03 00:53:33;;;;;;;26.87;15.53;;;7.10;99.90;;;;;;4975218;28;20233;-70
2023/02/03 00:55:59;;;;;;;28.33;17.57;;;7.10;99.90;;;;;;4974299;28;20292;-71
2023/02/03 00:58:26;;;;;;;28.40;16.17;;;7.20;99.90;;;;;;4974304;28;20230;-70
2023/02/03 01:00:55;;;;;;;26.13;16.13;;;7.30;99.90;;;;;;4974793;28;20652;-70
2023/02/03 01:03:23;;;;;;;27.50;16.33;;;7.40;99.90;;;;;;4974780;28;20204;-71
2023/02/03 01:05:50;;;;;;;29.60;17.47;;;7.40;99.90;;;;;;4974773;28;20752;-70
2023/02/03 01:08:17;;;;;;;26.33;16.33;;;7.40;99.90;;;;;;4975286;28;20237;-71
2023/02/03 01:10:44;;;;;;;28.57;17.40;;;7.40;99.90;;;;;;4974353;28;20665;-70
2023/02/03 01:13:11;;;;;;;28.03;15.93;;;7.50;99.90;;;;;;4974560;28;20238;-71
2023/02/03 01:15:38;;;;;;;27.43;16.43;;;7.50;99.90;;;;;;4972426;28;20252;-70
2023/02/03 01:18:05;;;;;;;28.43;15.87;;;7.50;99.90;;;;;;4974461;28;20696;-70
2023/02/03 01:20:35;;;;;;;25.53;15.73;;;7.60;99.90;;;;;;4974432;28;20292;-71
2023/02/03 01:23:02;;;;;;;27.30;16.77;;;7.50;99.90;;;;;;4973906;28;20289;-71
2023/02/03 01:25:29;;;;;;;26.80;16.13;;;7.60;99.90;;;;;;4974592;28;20649;-70
2023/02/03 01:27:56;;;;;;;28.50;17.03;;;7.60;99.90;;;;;;4974042;28;20633;-70
2023/02/03 01:30:23;;;;;;;26.07;16.20;;;7.70;99.90;;;;;;4974362;28;20294;-70
2023/02/03 01:32:50;;;;;;;27.57;16.17;;;7.70;99.90;;;;;;4974546;28;20248;-70
2023/02/03 01:35:17;;;;;;;27.27;15.13;;;7.70;99.90;;;;;;4974214;28;20334;-70
2023/02/03 01:37:45;;;;;;;27.53;16.37;;;7.80;99.90;;;;;;4974252;28;20237;-70
2023/02/03 01:40:13;;;;;;;24.83;14.57;;;7.70;99.90;;;;;;4974186;28;20648;-70
2023/02/03 01:42:40;;;;;;;27.77;15.33;;;7.80;99.90;;;;;;4973358;28;20241;-70
2023/02/03 01:45:08;;;;;;;22.73;14.43;;;7.90;99.90;;;;;;4974559;28;20245;-70
2023/02/03 01:47:38;;;;;;;26.63;15.57;;;7.80;99.90;;;;;;4972809;28;20221;-70
2023/02/03 01:50:13;;;;;;;21.30;14.37;;;7.80;99.90;;;;;;4972661;28;20237;-70
2023/02/03 01:52:43;;;;;;;22.00;14.53;;;7.90;99.90;;;;;;4974663;28;20212;-70
2023/02/03 01:55:14;;;;;;;25.27;15.07;;;7.90;99.90;;;;;;4973873;28;20257;-71
2023/02/03 01:57:46;;;;;;;25.70;14.30;;;7.90;99.90;;;;;;4973569;28;20292;-70
2023/02/03 02:00:14;;;;;;;21.03;13.50;;;7.90;99.90;;;;;;4974631;28;20694;-70
2023/02/03 02:02:43;;;;;;;23.50;14.10;;;7.90;99.90;;;;;;4973371;28;20230;-70
2023/02/03 02:05:16;;;;;;;21.60;13.97;;;7.90;99.90;;;;;;4974203;28;20233;-70
2023/02/03 02:07:44;;;;;;;21.67;13.30;;;7.90;99.90;;;;;;4972085;28;20297;-70
2023/02/03 02:10:13;;;;;;;22.43;12.97;;;8.00;99.90;;;;;;4973093;28;20501;-70
2023/02/03 02:12:40;;;;;;;21.27;12.83;;;8.00;99.90;;;;;;4972674;28;20230;-70
2023/02/03 02:15:08;;;;;;;21.00;12.20;;;8.00;99.90;;;;;;4973298;28;20297;-70
2023/02/03 02:17:58;;;;;;;17.33;11.43;;;8.10;99.90;;;;;;4973526;28;20301;-71
2023/02/03 02:20:54;;;;;;;20.57;11.50;;;8.10;99.90;;;;;;4974257;28;20619;-70
2023/02/03 02:23:56;;;;;;;18.33;11.77;;;8.20;99.90;;;;;;4956941;28;20233;-70
2023/02/03 02:27:06;;;;;;;19.67;11.93;;;8.10;99.90;;;;;;4971553;28;20236;-70
2023/02/03 02:30:11;;;;;;;19.27;10.47;;;8.10;99.90;;;;;;4961868;28;20613;-70
2023/02/03 02:32:51;;;;;;;18.87;10.77;;;8.20;99.90;;;;;;4971683;28;20288;-70
2023/02/03 02:35:32;;;;;;;22.83;11.00;;;8.30;99.90;;;;;;4972666;28;20284;-70
2023/02/03 02:38:03;;;;;;;17.47;10.43;;;8.30;99.90;;;;;;4971940;28;20654;-70
2023/02/03 02:40:36;;;;;;;17.03;10.27;;;8.30;99.90;;;;;;4972815;28;20237;-70
2023/02/03 02:43:10;;;;;;;20.13;11.47;;;8.40;99.90;;;;;;4972532;28;20234;-70
2023/02/03 02:45:45;;;;;;;16.87;10.43;;;8.30;99.90;;;;;;4972408;28;20202;-70
2023/02/03 02:48:22;;;;;;;18.90;10.70;;;8.30;99.90;;;;;;4971210;28;20236;-70
2023/02/03 02:50:53;;;;;;;14.43;9.37;;;8.30;99.90;;;;;;4973392;28;20232;-70
2023/02/03 02:53:23;;;;;;;17.50;9.63;;;8.40;99.90;;;;;;4971397;28;20229;-70
2023/02/03 02:55:53;;;;;;;16.40;10.10;;;8.40;99.90;;;;;;4972910;28;20202;-70
2023/02/03 02:58:21;;;;;;;16.27;9.83;;;8.40;99.90;;;;;;4970473;28;20272;-70
2023/02/03 03:00:48;;;;;;;17.93;9.90;;;8.40;99.90;;;;;;4972204;28;20293;-70
2023/02/03 03:03:18;;;;;;;14.60;9.80;;;8.40;99.90;;;;;;4971922;28;20237;-70
2023/02/03 03:05:52;;;;;;;18.20;10.30;;;8.30;99.90;;;;;;4972927;28;20237;-70
2023/02/03 03:08:23;;;;;;;18.47;9.30;;;8.40;99.90;;;;;;4973559;28;20205;-70
2023/02/03 03:10:53;;;;;;;16.37;9.70;;;8.40;99.90;;;;;;4971548;28;20233;-70
2023/02/03 03:13:24;;;;;;;22.33;10.10;;;8.40;99.90;;;;;;4972614;28;20237;-70
2023/02/03 03:15:55;;;;;;;14.80;9.10;;;8.40;99.90;;;;;;4971017;28;20202;-70
2023/02/03 03:18:26;;;;;;;17.93;9.13;;;8.40;99.90;;;;;;4972048;28;20756;-70
2023/02/03 03:21:04;;;;;;;15.57;9.63;;;8.40;99.90;;;;;;4971794;28;20555;-70
2023/02/03 03:23:35;;;;;;;15.40;9.60;;;8.40;99.90;;;;;;4972604;28;20232;-70
2023/02/03 03:26:09;;;;;;;16.27;10.30;;;8.50;99.90;;;;;;4971771;28;20206;-70
2023/02/03 03:28:42;;;;;;;18.13;9.27;;;8.50;99.90;;;;;;4972487;28;20292;-70
2023/02/03 03:31:09;;;;;;;18.70;9.60;;;8.50;99.90;;;;;;4972331;28;20289;-71
2023/02/03 03:33:38;;;;;;;15.53;9.90;;;8.50;99.90;;;;;;4972012;28;20288;-70
2023/02/03 03:36:15;;;;;;;15.43;9.40;;;8.50;99.90;;;;;;4970982;28;20285;-71
2023/02/03 03:38:46;;;;;;;18.97;9.27;;;8.50;99.90;;;;;;4971359;28;20233;-70
2023/02/03 03:41:19;;;;;;;16.03;8.80;;;8.50;99.90;;;;;;4971762;28;20240;-70
2023/02/03 03:43:48;;;;;;;15.77;8.73;;;8.50;99.90;;;;;;4970801;28;20628;-70
2023/02/03 03:46:19;;;;;;;14.73;8.67;;;8.50;99.90;;;;;;4971314;28;20615;-71
2023/02/03 03:48:52;;;;;;;13.93;7.63;;;8.60;99.90;;;;;;4972178;28;20206;-71
2023/02/03 03:51:23;;;;;;;14.47;8.90;;;8.60;99.90;;;;;;4971494;28;20237;-70
2023/02/03 03:53:52;;;;;;;15.47;8.83;;;8.60;99.90;;;;;;4972220;28;20290;-75
2023/02/03 03:56:25;;;;;;;13.93;8.60;;;8.60;99.90;;;;;;4972528;28;20270;-77
2023/02/03 03:58:54;;;;;;;15.63;9.00;;;8.60;99.90;;;;;;4964937;28;20257;-76
2023/02/03 04:01:22;;;;;;;15.83;9.67;;;8.60;99.90;;;;;;4971934;28;20564;-76
2023/02/03 04:03:57;;;;;;;15.93;8.67;;;8.60;99.90;;;;;;4972222;28;20240;-76
2023/02/03 04:06:24;;;;;;;15.70;8.60;;;8.50;99.90;;;;;;4972499;28;20253;-76
2023/02/03 04:08:51;;;;;;;14.07;8.67;;;8.50;99.90;;;;;;4971519;28;20284;-76
2023/02/03 04:13:59;;;;;;;14.97;8.47;;;8.50;99.90;;;;;;4971298;28;20691;-76
2023/02/03 04:16:26;;;;;;;13.73;8.37;;;8.40;99.90;;;;;;4970435;28;20304;-75
2023/02/03 04:18:54;;;;;;;12.23;7.53;;;8.50;99.90;;;;;;4970932;28;20312;-76
2023/02/03 04:21:21;;;;;;;13.37;8.33;;;8.50;99.90;;;;;;4972165;28;20257;-76
2023/02/03 04:23:50;;;;;;;14.17;8.30;;;8.50;99.90;;;;;;4972239;28;20289;-76
2023/02/03 04:26:17;;;;;;;13.03;8.23;;;8.60;99.90;;;;;;4972487;28;20206;-75
2023/02/03 04:28:47;;;;;;;12.40;7.93;;;8.60;99.90;;;;;;4972530;28;20237;-75
2023/02/03 04:31:14;;;;;;;13.63;8.20;;;8.60;99.90;;;;;;4971895;28;20608;-75
2023/02/03 04:33:41;;;;;;;16.10;8.20;;;8.60;99.90;;;;;;4970866;28;20288;-70
2023/02/03 04:36:09;;;;;;;14.53;7.83;;;8.60;99.90;;;;;;4971704;28;20312;-70
2023/02/03 04:38:36;;;;;;;12.43;7.77;;;8.60;99.90;;;;;;4971938;28;20256;-70
2023/02/03 04:41:03;;;;;;;16.73;8.37;;;8.60;99.90;;;;;;4972200;28;20237;-70
2023/02/03 04:43:30;;;;;;;15.13;8.47;;;8.60;99.90;;;;;;4971660;28;20245;-70
2023/02/03 04:45:59;;;;;;;12.97;7.83;;;8.70;99.90;;;;;;4972019;28;20237;-70
2023/02/03 04:48:26;;;;;;;14.07;8.40;;;8.60;99.90;;;;;;4970595;28;20285;-70
2023/02/03 04:50:53;;;;;;;13.40;8.17;;;8.60;99.90;;;;;;4972399;28;20296;-71
2023/02/03 04:53:21;;;;;;;13.40;8.10;;;8.60;99.90;;;;;;4971665;28;20273;-70
2023/02/03 04:55:48;;;;;;;14.23;8.10;;;8.70;99.90;;;;;;4971971;28;20633;-70
2023/02/03 04:58:15;;;;;;;15.80;9.57;;;8.60;99.90;;;;;;4971965;28;20237;-70
2023/02/03 05:00:42;;;;;;;15.93;8.87;;;8.60;99.90;;;;;;4971027;28;20300;-70
2023/02/03 05:03:09;;;;;;;16.37;8.20;;;8.60;99.90;;;;;;4971262;28;20289;-71
2023/02/03 05:05:36;;;;;;;15.00;8.87;;;8.60;99.90;;;;;;4970617;28;20300;-70
2023/02/03 05:08:03;;;;;;;13.73;8.87;;;8.60;99.90;;;;;;4972102;28;20604;-70
2023/02/03 05:10:32;;;;;;;14.80;9.17;;;8.60;99.90;;;;;;4972114;28;20241;-70
2023/02/03 05:12:59;;;;;;;17.83;9.17;;;8.60;99.90;;;;;;4971898;28;20301;-70
2023/02/03 05:15:26;;;;;;;17.00;8.43;;;8.70;99.90;;;;;;4970591;28;20293;-71
2023/02/03 05:17:53;;;;;;;16.90;9.43;;;8.60;99.90;;;;;;4971348;28;20237;-70
2023/02/03 05:20:20;;;;;;;13.20;8.50;;;8.70;99.90;;;;;;4970944;28;20405;-70
2023/02/03 05:22:47;;;;;;;15.93;9.00;;;8.70;99.90;;;;;;4970070;28;20630;-71
2023/02/03 05:25:14;;;;;;;20.70;9.60;;;8.60;99.90;;;;;;4972861;28;20289;-70
2023/02/03 05:27:43;;;;;;;15.43;9.07;;;8.70;99.90;;;;;;4975084;28;20233;-70
2023/02/03 05:30:11;;;;;;;14.53;9.27;;;8.70;99.90;;;;;;4974516;28;20639;-70
2023/02/03 05:32:38;;;;;;;14.63;8.83;;;8.70;99.90;;;;;;4974369;28;20209;-70
2023/02/03 05:35:05;;;;;;;17.00;8.80;;;8.60;99.90;;;;;;4975383;28;20281;-71
2023/02/03 05:37:32;;;;;;;13.13;8.27;;;8.60;99.90;;;;;;4974185;28;20639;-71
2023/02/03 05:41:51;;;;;;;14.67;8.33;;;8.70;99.90;;;;;;4973421;28;20644;-71
2023/02/03 05:42:47;;;;;;;15.03;7.70;;;8.60;99.90;;;;;;4973697;28;20292;-71
2023/02/03 05:45:14;;;;;;;15.30;9.07;;;8.70;99.90;;;;;;4975126;28;20256;-75
2023/02/03 05:47:41;;;;;;;13.93;7.03;;;8.60;99.90;;;;;;4973988;28;20607;-75
2023/02/03 05:50:09;;;;;;;11.70;7.20;;;8.70;99.90;;;;;;4973872;28;20443;-75
2023/02/03 05:52:36;;;;;;;22.40;10.73;;;8.70;99.90;;;;;;4973760;28;20292;-70
2023/02/03 05:55:03;;;;;;;18.17;10.23;;;8.70;99.90;;;;;;4974628;28;20240;-70
2023/02/03 05:57:30;;;;;;;13.53;8.20;;;8.70;99.90;;;;;;4974473;28;20222;-70
2023/02/03 05:59:58;;;;;;;14.77;8.10;;;8.60;99.90;;;;;;4974697;28;20312;-71
2023/02/03 06:02:25;;;;;;;14.00;7.90;;;8.60;99.90;;;;;;4974203;28;20683;-71
2023/02/03 06:04:52;;;;;;;12.77;7.50;;;8.60;99.90;;;;;;4967292;28;20630;-72
2023/02/03 06:07:19;;;;;;;12.30;7.60;;;8.60;99.90;;;;;;4973652;28;20248;-71
2023/02/03 06:09:46;;;;;;;13.43;7.20;;;8.60;99.90;;;;;;4973014;28;20292;-71
2023/02/03 06:12:14;;;;;;;16.00;8.07;;;8.50;99.90;;;;;;4974136;28;20288;-71
2023/02/03 06:14:41;;;;;;;13.20;7.30;;;8.50;99.90;;;;;;4973953;28;20229;-71
2023/02/03 06:17:10;;;;;;;15.20;8.50;;;8.50;99.90;;;;;;4973487;28;20241;-71
2023/02/03 06:19:37;;;;;;;17.47;8.07;;;8.50;99.90;;;;;;4974025;28;20320;-72
2023/02/03 06:22:04;;;;;;;11.30;6.30;;;8.50;99.90;;;;;;4974036;28;20684;-71
2023/02/03 06:24:31;;;;;;;12.20;6.03;;;8.40;99.90;;;;;;4973349;28;20687;-68
2023/02/03 06:26:58;;;;;;;15.93;7.40;;;8.40;99.90;;;;;;4974498;28;20272;-68
2023/02/03 06:29:25;;;;;;;13.30;6.97;;;8.50;99.90;;;;;;4974467;28;20679;-68
2023/02/03 06:31:52;;;;;;;18.37;7.73;;;8.50;99.90;;;;;;4972981;28;20293;-71
2023/02/03 06:34:20;;;;;;;13.57;7.00;;;8.50;99.90;;;;;;4974288;28;20703;-71
2023/02/03 06:36:48;;;;;;;12.40;6.87;;;8.50;99.90;;;;;;4972035;28;20237;-75
2023/02/03 06:39:15;;;;;;;12.50;6.67;;;8.50;99.90;;;;;;4973839;28;20202;-72
2023/02/03 06:41:42;;;;;;;16.90;8.03;;;8.50;99.90;;;;;;4972779;28;20245;-69
2023/02/03 06:44:09;;;;;;;10.53;6.27;;;8.40;99.90;;;;;;4974221;28;20292;-70
2023/02/03 06:46:36;;;;;;;11.57;6.07;;;8.50;99.90;;;;;;4971927;28;20289;-75
2023/02/03 06:49:03;;;;;;;11.47;6.00;;;8.40;99.90;;;;;;4973719;28;20292;-75
2023/02/03 06:51:31;;;;;;;11.10;6.13;;;8.40;99.90;;;;;;4973230;28;20293;-69
2023/02/03 06:53:59;;;;;;;11.67;6.57;;;8.40;99.90;;;;;;4969215;28;20198;-69
2023/02/03 06:56:26;;;;;;;10.07;5.47;;;8.40;99.90;;;;;;4967891;28;20217;-68
2023/02/03 06:58:53;;;;;;;11.57;6.07;;;8.30;99.90;;;;;;4972264;28;20617;-68
2023/02/03 07:01:20;;;;;;;10.47;5.83;;;8.30;99.90;;;;;;4969068;28;20312;-68
2023/02/03 07:03:47;;;;;;;10.13;5.43;;;8.30;99.90;;;;;;4962044;28;20652;-68
2023/02/03 07:06:15;;;;;;;10.00;5.40;;;8.40;99.90;;;;;;4978349;28;20285;-68
2023/02/03 07:08:43;;;;;;;8.90;5.13;;;8.30;99.90;;;;;;4970254;28;20298;-70
2023/02/03 07:11:10;;;;;;;11.80;6.17;;;8.40;99.90;;;;;;4973696;28;20214;-71
2023/02/03 07:13:36;;;;;;;9.87;5.40;;;8.30;99.90;;;;;;4970244;28;21223;-71
2023/02/03 07:16:03;;;;;;;9.57;5.73;;;8.30;99.90;;;;;;4978497;28;20201;-71
2023/02/03 07:18:30;;;;;;;8.63;5.37;;;8.20;99.90;;;;;;4970959;28;20201;-71
2023/02/03 07:20:57;;;;;;;12.43;5.97;;;8.10;99.90;;;;;;4969440;28;20218;-71
2023/02/03 07:23:24;;;;;;;10.20;5.60;;;8.20;99.90;;;;;;4975934;28;20208;-71
2023/02/03 07:25:52;;;;;;;8.17;5.63;;;8.20;99.90;;;;;;4967331;28;20208;-72
2023/02/03 07:28:19;;;;;;;8.93;5.33;;;8.20;99.90;;;;;;4970645;28;20205;-71
2023/02/03 07:30:48;;;;;;;9.07;5.30;;;8.20;99.90;;;;;;4981957;28;20197;-72
2023/02/03 07:33:15;;;;;;;7.70;4.70;;;8.20;99.90;;;;;;4969802;28;20210;-71
2023/02/03 07:35:42;;;;;;;9.10;5.33;;;8.20;99.90;;;;;;4973516;28;20215;-71
2023/02/03 07:38:09;;;;;;;6.93;5.43;;;8.10;99.90;;;;;;4977798;28;20446;-71
2023/02/03 07:40:36;;;;;;;8.90;5.47;;;8.10;99.90;;;;;;4977666;28;20225;-72
2023/02/03 07:43:04;;;;;;;7.97;5.33;;;8.10;99.90;;;;;;4967924;28;20696;-72
2023/02/03 07:45:31;;;;;;;8.13;5.40;;;8.10;99.90;;;;;;4976579;28;20291;-71
2023/02/03 07:47:57;;;;;;;9.07;4.27;;;8.10;99.90;;;;;;4975454;28;20202;-71
2023/02/03 07:50:24;;;;;;;6.23;4.60;;;8.20;99.90;;;;;;4973038;28;20201;-71
2023/02/03 07:52:51;;;;;;;8.23;4.23;;;8.20;99.90;;;;;;4967543;28;20204;-72
2023/02/03 07:55:18;;;;;;;5.33;3.60;;;8.20;99.90;;;;;;4981418;28;20256;-71
2023/02/03 07:57:45;;;;;;;6.07;3.90;;;8.20;99.90;;;;;;4970600;28;20212;-71
2023/02/03 08:00:15;;;;;;;7.10;4.10;;;8.20;99.90;;;;;;4969322;28;20229;-72
2023/02/03 08:02:43;;;;;;;4.00;3.00;;;8.20;99.90;;;;;;4981555;28;20259;-71
2023/02/03 08:05:11;;;;;;;5.03;3.10;;;8.30;99.90;;;;;;4968865;28;20216;-71
2023/02/03 08:07:38;;;;;;;4.53;3.10;;;8.30;99.90;;;;;;4974504;28;20294;-71
2023/02/03 08:10:06;;;;;;;3.30;2.70;;;8.30;99.90;;;;;;4970623;28;20197;-71
2023/02/03 08:12:33;;;;;;;4.20;2.87;;;8.40;99.90;;;;;;4973345;28;20586;-72
2023/02/03 08:15:00;;;;;;;3.13;2.83;;;8.40;99.90;;;;;;4972606;28;20817;-72
2023/02/03 08:17:28;;;;;;;3.47;3.10;;;8.40;99.90;;;;;;4968209;28;20211;-72
2023/02/03 08:19:55;;;;;;;4.20;2.83;;;8.30;99.90;;;;;;4980367;28;20295;-72
2023/02/03 08:22:22;;;;;;;5.60;3.30;;;8.30;99.90;;;;;;4966639;28;20202;-71
2023/02/03 08:24:48;;;;;;;3.53;2.70;;;8.40;99.90;;;;;;4967709;28;20201;-71
2023/02/03 08:27:17;;;;;;;4.30;3.20;;;8.40;99.90;;;;;;4978064;28;20202;-72
2023/02/03 08:29:44;;;;;;;5.73;3.23;;;8.50;99.90;;;;;;4970668;28;20205;-72
2023/02/03 08:32:12;;;;;;;4.23;3.00;;;8.50;99.90;;;;;;4969493;28;20246;-72
2023/02/03 08:34:40;;;;;;;4.47;3.20;;;8.60;99.90;;;;;;4977976;28;20206;-71
2023/02/03 08:37:08;;;;;;;3.57;2.97;;;8.60;99.90;;;;;;4976393;28;20727;-71
2023/02/03 08:39:35;;;;;;;5.53;2.93;;;8.60;99.90;;;;;;4971405;28;20272;-72
2023/02/03 08:42:02;;;;;;;4.37;2.70;;;8.70;99.90;;;;;;4972195;28;20720;-72
2023/02/03 08:44:30;;;;;;;3.40;2.70;;;8.70;99.90;;;;;;4971134;28;20201;-71
2023/02/03 08:46:56;;;;;;;7.20;3.27;;;8.70;99.90;;;;;;4970380;28;20209;-71
2023/02/03 08:49:26;;;;;;;6.23;3.50;;;8.80;99.90;;;;;;4971645;28;20581;-71
2023/02/03 08:51:55;;;;;;;5.13;3.30;;;8.80;99.90;;;;;;4975507;28;20200;-72
2023/02/03 08:54:22;;;;;;;7.37;3.50;;;8.90;99.90;;;;;;4968795;28;20205;-72
2023/02/03 08:56:49;;;;;;;6.67;4.20;;;8.90;99.90;;;;;;4969091;28;20209;-71
2023/02/03 08:59:16;;;;;;;6.27;4.00;;;8.90;99.90;;;;;;4975828;28;20657;-71
2023/02/03 09:01:44;;;;;;;7.13;4.93;;;8.90;99.90;;;;;;4977174;28;20228;-71
2023/02/03 09:04:11;;;;;;;7.40;5.00;;;8.80;99.90;;;;;;4970974;28;20206;-71
2023/02/03 09:06:39;;;;;;;7.13;4.70;;;8.80;99.90;;;;;;4982968;28;20214;-71
2023/02/03 09:09:07;;;;;;;9.27;5.47;;;8.80;99.90;;;;;;4978107;28;20249;-71
2023/02/03 09:11:33;;;;;;;8.17;4.93;;;8.70;99.90;;;;;;4976754;28;20205;-71
2023/02/03 09:14:00;;;;;;;11.53;6.70;;;8.70;99.90;;;;;;4979369;28;20205;-71
2023/02/03 09:16:29;;;;;;;16.13;8.03;;;8.60;99.90;;;;;;4984994;28;20206;-71
2023/02/03 09:18:56;;;;;;;12.07;6.07;;;8.60;99.90;;;;;;4973441;28;20300;-71
2023/02/03 09:21:24;;;;;;;11.90;5.87;;;8.60;99.90;;;;;;4979863;28;20216;-72
2023/02/03 09:23:51;;;;;;;10.80;6.27;;;8.60;99.90;;;;;;4976397;28;20233;-71
2023/02/03 09:26:19;;;;;;;9.90;6.23;;;8.70;99.90;;;;;;4974401;28;20225;-72
2023/02/03 09:28:46;;;;;;;7.47;4.97;;;8.90;99.90;;;;;;4975623;28;20205;-71
2023/02/03 09:31:16;;;;;;;9.50;5.70;;;9.00;99.90;;;;;;4982352;28;20201;-71
2023/02/03 09:33:43;;;;;;;9.77;4.70;;;9.00;99.90;;;;;;4971793;28;20240;-71
2023/02/03 09:36:11;;;;;;;9.63;4.73;;;9.00;99.90;;;;;;4972549;28;20218;-71
2023/02/03 09:38:38;;;;;;;9.23;5.07;;;9.10;99.90;;;;;;4985212;28;20206;-71
2023/02/03 09:41:18;;;;;;;7.30;4.10;;;9.10;99.90;;;;;;4975877;28;20237;-72
2023/02/03 09:43:52;;;;;;;9.50;4.53;;;9.10;99.90;;;;;;4971691;28;20212;-72
2023/02/03 09:46:22;;;;;;;9.13;4.77;;;9.20;99.90;;;;;;4981526;28;20498;-71
2023/02/03 09:48:52;;;;;;;10.87;4.33;;;9.10;99.90;;;;;;4971379;28;20210;-71
2023/02/03 09:51:23;;;;;;;8.93;4.20;;;9.20;99.90;;;;;;4970297;28;20203;-71
2023/02/03 09:53:56;;;;;;;10.27;3.87;;;9.20;99.90;;;;;;4978213;28;20212;-71
2023/02/03 09:56:28;;;;;;;6.10;3.50;;;9.00;99.90;;;;;;4978671;28;20242;-72
2023/02/03 09:58:57;;;;;;;7.53;3.60;;;9.00;99.90;;;;;;4968103;28;20212;-71
2023/02/03 10:01:27;;;;;;;10.60;4.23;;;9.00;99.90;;;;;;4971536;28;20229;-71
2023/02/03 10:04:03;;;;;;;7.57;3.90;;;9.00;99.90;;;;;;4979130;28;20201;-71
2023/02/03 10:06:35;;;;;;;6.90;3.50;;;9.00;99.90;;;;;;4970065;28;20557;-71
2023/02/03 10:09:16;;;;;;;7.07;3.10;;;9.00;99.90;;;;;;4974275;28;20219;-71
2023/02/03 10:12:07;;;;;;;9.37;3.37;;;9.00;99.90;;;;;;4975135;28;20200;-71
2023/02/03 10:14:52;;;;;;;7.87;3.10;;;9.10;99.90;;;;;;4970141;28;20213;-72
2023/02/03 10:17:29;;;;;;;4.33;2.40;;;9.10;99.90;;;;;;4971356;28;20212;-71
2023/02/03 10:20:02;;;;;;;8.77;3.07;;;9.20;99.90;;;;;;4968216;28;20308;-71
2023/02/03 10:22:32;;;;;;;5.93;2.10;;;9.10;99.90;;;;;;4974940;28;20719;-72
2023/02/03 10:25:03;;;;;;;11.20;2.87;;;9.20;99.90;;;;;;4974783;28;20198;-72
2023/02/03 10:27:31;;;;;;;4.70;2.20;;;9.30;99.90;;;;;;4975349;28;20213;-72
2023/02/03 10:30:07;;;;;;;5.03;1.90;;;9.30;99.90;;;;;;4975124;28;20653;-72
2023/02/03 10:32:34;;;;;;;7.40;2.50;;;9.30;99.90;;;;;;4974466;28;20294;-72
2023/02/03 10:35:01;;;;;;;5.60;2.07;;;9.30;99.90;;;;;;4974799;28;20209;-71
2023/02/03 10:37:31;;;;;;;6.87;2.00;;;9.30;99.90;;;;;;4975281;28;20216;-71
2023/02/03 10:39:59;;;;;;;3.93;1.60;;;9.40;99.90;;;;;;4975149;28;20224;-71
2023/02/03 10:43:46;;;;;;;9.83;2.60;;;9.30;99.90;;;;;;4974736;28;20587;-71
2023/02/03 10:45:15;;;;;;;6.63;1.53;;;9.30;99.90;;;;;;4974170;28;20260;-72
2023/02/03 10:47:47;;;;;;;7.83;1.80;;;9.30;99.90;;;;;;4973632;28;20206;-70
2023/02/03 10:50:17;;;;;;;8.17;1.80;;;9.30;99.90;;;;;;4974596;28;20210;-71
2023/02/03 10:52:44;;;;;;;4.20;2.00;;;9.30;99.90;;;;;;4974316;28;20210;-71
2023/02/03 10:55:30;;;;;;;4.57;1.90;;;9.30;99.90;;;;;;4974496;28;20212;-71
2023/02/03 10:57:58;;;;;;;9.37;2.73;;;9.10;99.90;;;;;;4972403;28;20596;-71
2023/02/03 11:00:29;;;;;;;7.53;2.30;;;9.00;99.90;;;;;;4974009;28;20653;-71
2023/02/03 11:02:58;;;;;;;4.40;1.63;;;8.90;99.90;;;;;;4974312;28;20209;-70
2023/02/03 11:05:25;;;;;;;4.97;1.57;;;8.80;99.90;;;;;;4973563;28;20209;-71
2023/02/03 11:07:53;;;;;;;5.77;2.00;;;8.90;99.90;;;;;;4973423;28;20214;-70
2023/02/03 11:10:33;;;;;;;8.00;1.93;;;9.00;99.90;;;;;;4974359;28;20213;-71
2023/02/03 11:13:26;;;;;;;7.33;2.27;;;9.00;99.90;;;;;;4973768;28;20214;-71
2023/02/03 11:15:59;;;;;;;13.33;4.13;;;9.10;99.90;;;;;;4939764;28;20206;-71
2023/02/03 11:18:33;;;;;;;6.27;3.00;;;9.10;99.90;;;;;;4974230;28;20205;-71
2023/02/03 11:21:00;;;;;;;7.50;2.50;;;9.10;99.90;;;;;;4973542;28;20231;-71
2023/02/03 11:23:27;;;;;;;6.70;1.87;;;9.10;99.90;;;;;;4972823;28;20213;-71
2023/02/03 11:25:54;;;;;;;8.50;2.60;;;9.10;99.90;;;;;;4974100;28;20687;-71
2023/02/03 11:28:21;;;;;;;5.53;2.30;;;9.20;99.90;;;;;;4973567;28;20218;-71
2023/02/03 11:30:57;;;;;;;4.90;2.80;;;9.20;99.90;;;;;;4972478;28;20202;-71
2023/02/03 11:33:27;;;;;;;8.53;2.67;;;9.20;99.90;;;;;;4973078;28;20216;-71
2023/02/03 11:35:57;;;;;;;12.57;3.20;;;9.30;99.90;;;;;;4973348;28;20622;-71
2023/02/03 11:38:31;;;;;;;10.67;2.47;;;9.30;99.90;;;;;;4974077;28;20248;-71
2023/02/03 11:41:00;;;;;;;10.87;3.10;;;9.30;99.90;;;;;;4973548;28;20556;-71
2023/02/03 11:43:28;;;;;;;7.30;3.47;;;9.30;99.90;;;;;;4972650;28;20210;-71
2023/02/03 11:46:01;;;;;;;9.73;2.53;;;9.30;99.90;;;;;;4972475;28;20664;-71
2023/02/03 11:48:32;;;;;;;10.03;3.77;;;9.30;99.90;;;;;;4974202;28;20637;-71
2023/02/03 11:51:11;;;;;;;9.57;3.00;;;9.30;99.90;;;;;;4972333;28;20686;-71
2023/02/03 11:53:53;;;;;;;11.33;2.93;;;9.40;99.90;;;;;;4973213;28;20209;-71
2023/02/03 11:56:31;;;;;;;10.70;2.40;;;9.40;99.90;;;;;;4973807;28;20637;-71
2023/02/03 11:59:21;;;;;;;9.73;2.93;;;9.40;99.90;;;;;;4972565;28;20675;-71
2023/02/03 12:02:23;;;;;;;11.33;2.97;;;9.40;99.90;;;;;;4972454;28;20712;-71
2023/02/03 12:05:17;;;;;;;13.03;3.80;;;9.40;99.90;;;;;;4973459;28;20580;-71
2023/02/03 12:07:54;;;;;;;17.67;4.13;;;9.40;99.90;;;;;;4973312;28;20213;-70
2023/02/03 12:10:33;;;;;;;14.50;4.77;;;9.50;99.90;;;;;;4972761;28;20213;-71
2023/02/03 12:13:11;;;;;;;16.83;3.23;;;9.40;99.90;;;;;;4972261;28;20661;-70
2023/02/03 12:15:51;;;;;;;15.67;3.10;;;9.40;99.90;;;;;;4972727;28;20243;-71
2023/02/03 12:18:37;;;;;;;17.73;4.30;;;9.50;99.90;;;;;;4971912;28;20219;-70
2023/02/03 12:21:15;;;;;;;15.07;3.57;;;9.50;99.90;;;;;;4972766;28;20197;-71
2023/02/03 12:23:52;;;;;;;15.77;2.83;;;9.50;99.90;;;;;;4971886;28;20228;-71
2023/02/03 12:26:23;;;;;;;12.67;3.90;;;9.60;99.90;;;;;;4973526;28;20205;-71
2023/02/03 12:28:59;;;;;;;16.67;3.73;;;9.60;99.90;;;;;;4965009;28;20236;-71
2023/02/03 12:31:31;;;;;;;11.10;3.20;;;9.60;99.90;;;;;;4970595;28;20201;-72
2023/02/03 12:34:06;;;;;;;18.57;3.43;;;9.60;99.90;;;;;;4962579;28;20205;-72
2023/02/03 12:36:38;;;;;;;13.53;2.90;;;9.60;99.90;;;;;;4973935;28;20217;-72
2023/02/03 12:39:11;;;;;;;11.10;3.80;;;9.70;99.90;;;;;;4973967;28;20213;-71
2023/02/03 12:41:42;;;;;;;14.80;3.00;;;9.70;99.90;;;;;;4974550;28;20226;-72
2023/02/03 12:44:17;;;;;;;13.23;3.60;;;9.70;99.90;;;;;;4974448;28;20683;-72
2023/02/03 12:46:49;;;;;;;17.70;3.57;;;9.80;99.90;;;;;;4973171;28;20209;-70
2023/02/03 12:49:29;;;;;;;17.37;4.23;;;9.80;99.90;;;;;;4973746;28;20206;-70
2023/02/03 12:51:59;;;;;;;18.87;4.23;;;9.80;99.90;;;;;;4952927;29;20202;-72
2023/02/03 12:54:36;;;;;;;19.70;3.60;;;9.80;99.90;;;;;;4974460;28;20228;-71
2023/02/03 12:57:14;;;;;;;20.83;3.97;;;9.80;99.90;;;;;;4973736;28;20228;-71
2023/02/03 12:59:43;;;;;;;18.13;4.00;;;9.70;99.90;;;;;;4973459;28;20683;-71
2023/02/03 13:02:17;;;;;;;16.83;4.10;;;9.80;99.90;;;;;;4973175;28;20232;-72
2023/02/03 13:04:52;;;;;;;16.93;4.27;;;9.90;99.90;;;;;;4974409;28;20202;-73
2023/02/03 13:07:26;;;;;;;13.17;3.13;;;9.90;99.90;;;;;;4973042;28;20276;-73